Currituck — AEFR — position and weather

sailwx.info

Track history (hours):
 
Tides and Currents Weather Stations Pressure Air Temp Water Temp Dewpoint Dewpoint Depression Visibility Wind Speed Wind Dir Waves Ship Positions

Currituck

Last reported at 2017-Jan-20 04:25 UTC. Time now 2017-Jan-20 05:52 UTC.
Position N 34°42' W 076°57'.

Length 45 m; draft 3 m.

Type: Dredging. MMSI: 369970446.

Date/timePositionNaut miles runAvg speedWind from/ knotsBaromVisibWave heightAir tempDewpointWater temp
2017-Jan-20 04:25N 34°42' W 076°57'7 7.9
2017-Jan-20 03:33N 34°43' W 076°49'6 5.6
2017-Jan-20 02:33N 34°43' W 076°42'0 0.0
2017-Jan-20 01:34N 34°43' W 076°42'0 0.0
2017-Jan-20 00:34N 34°43' W 076°42'0 0.0
2017-Jan-19 23:34N 34°43' W 076°42'4 4.3
2017-Jan-19 22:34N 34°48' W 076°41'7 7.4
2017-Jan-19 21:33N 34°55' W 076°40'  
2017-Jan-15 11:32N 36°48' W 075°55'3 0.5
2017-Jan-15 05:17N 36°50' W 075°58'0 0.0
2017-Jan-15 04:33N 36°50' W 075°58'0 0.0
2017-Jan-15 03:30N 36°50' W 075°58'0 0.0
2017-Jan-14 22:24N 36°50' W 075°58'0 0.0
2017-Jan-14 21:33N 36°50' W 075°58'0 0.0
2017-Jan-14 20:33N 36°50' W 075°58'4 4.0
2017-Jan-14 19:33N 36°53' W 075°55'162 5.1
2017-Jan-13 11:32N 39°19' W 074°25'19 1.0
2017-Jan-12 16:31N 39°34' W 074°11'6 6.7
2017-Jan-12 15:33N 39°40' W 074°07'7 6.6
2017-Jan-12 14:33N 39°46' W 074°03'20 6.7
2017-Jan-12 11:33N 40°06' W 074°02'0 0.4
2017-Jan-12 10:33N 40°06' W 074°03'0 0.0
2017-Jan-12 09:33N 40°06' W 074°03'0 0.0
2017-Jan-12 08:33N 40°06' W 074°03'0 0.0
2017-Jan-12 07:33N 40°06' W 074°03'0 0.0
2017-Jan-12 06:33N 40°06' W 074°03'0 0.0
2017-Jan-12 05:33N 40°06' W 074°03'0 0.0
2017-Jan-12 04:33N 40°06' W 074°03'0 0.0
2017-Jan-12 03:33N 40°06' W 074°03'0 0.0
2017-Jan-12 02:33N 40°06' W 074°03'0 0.0
2017-Jan-12 01:33N 40°06' W 074°03'0 0.0
2017-Jan-12 00:33N 40°06' W 074°03'0 0.0
2017-Jan-11 23:33N 40°06' W 074°03'0 0.0
2017-Jan-11 22:33N 40°06' W 074°03'0 0.0
2017-Jan-11 21:33N 40°06' W 074°03'0 0.0
2017-Jan-11 20:33N 40°06' W 074°03'0 0.0
2017-Jan-11 19:33N 40°06' W 074°03'0 0.0
2017-Jan-11 18:33N 40°06' W 074°03'0 0.0
2017-Jan-11 17:33N 40°06' W 074°03'0 0.0
2017-Jan-11 16:33N 40°06' W 074°03'0 0.0
2017-Jan-11 15:33N 40°06' W 074°03'0 0.0
2017-Jan-11 14:33N 40°06' W 074°03'0 0.0
2017-Jan-11 13:33N 40°06' W 074°03'0 0.0
2017-Jan-11 12:33N 40°06' W 074°02'  
Track history (hours):
 
Tides and Currents Weather Stations Pressure Air Temp Water Temp Dewpoint Dewpoint Depression Visibility Wind Speed Wind Dir Waves Ship Positions

Currituck

Last reported at 2017-Jan-20 04:25 UTC. Time now 2017-Jan-20 05:52 UTC.
Position N 34°42' W 076°57'.

Length 45 m; draft 3 m.

Type: Dredging. MMSI: 369970446.

Date/timePositionNaut miles runAvg speedWind from/ knotsBaromVisibWave heightAir tempDewpointWater temp
2017-Jan-20 04:25N 34°42' W 076°57'7 7.9
2017-Jan-20 03:33N 34°43' W 076°49'6 5.6
2017-Jan-20 02:33N 34°43' W 076°42'0 0.0
2017-Jan-20 01:34N 34°43' W 076°42'0 0.0
2017-Jan-20 00:34N 34°43' W 076°42'0 0.0
2017-Jan-19 23:34N 34°43' W 076°42'4 4.3
2017-Jan-19 22:34N 34°48' W 076°41'7 7.4
2017-Jan-19 21:33N 34°55' W 076°40'  
2017-Jan-15 11:32N 36°48' W 075°55'3 0.5
2017-Jan-15 05:17N 36°50' W 075°58'0 0.0
2017-Jan-15 04:33N 36°50' W 075°58'0 0.0
2017-Jan-15 03:30N 36°50' W 075°58'0 0.0
2017-Jan-14 22:24N 36°50' W 075°58'0 0.0
2017-Jan-14 21:33N 36°50' W 075°58'0 0.0
2017-Jan-14 20:33N 36°50' W 075°58'4 4.0
2017-Jan-14 19:33N 36°53' W 075°55'162 5.1
2017-Jan-13 11:32N 39°19' W 074°25'19 1.0
2017-Jan-12 16:31N 39°34' W 074°11'6 6.7
2017-Jan-12 15:33N 39°40' W 074°07'7 6.6
2017-Jan-12 14:33N 39°46' W 074°03'20 6.7
2017-Jan-12 11:33N 40°06' W 074°02'0 0.4
2017-Jan-12 10:33N 40°06' W 074°03'0 0.0
2017-Jan-12 09:33N 40°06' W 074°03'0 0.0
2017-Jan-12 08:33N 40°06' W 074°03'0 0.0
2017-Jan-12 07:33N 40°06' W 074°03'0 0.0
2017-Jan-12 06:33N 40°06' W 074°03'0 0.0
2017-Jan-12 05:33N 40°06' W 074°03'0 0.0
2017-Jan-12 04:33N 40°06' W 074°03'0 0.0
2017-Jan-12 03:33N 40°06' W 074°03'0 0.0
2017-Jan-12 02:33N 40°06' W 074°03'0 0.0
2017-Jan-12 01:33N 40°06' W 074°03'0 0.0
2017-Jan-12 00:33N 40°06' W 074°03'0 0.0
2017-Jan-11 23:33N 40°06' W 074°03'0 0.0
2017-Jan-11 22:33N 40°06' W 074°03'0 0.0
2017-Jan-11 21:33N 40°06' W 074°03'0 0.0
2017-Jan-11 20:33N 40°06' W 074°03'0 0.0
2017-Jan-11 19:33N 40°06' W 074°03'0 0.0
2017-Jan-11 18:33N 40°06' W 074°03'0 0.0
2017-Jan-11 17:33N 40°06' W 074°03'0 0.0
2017-Jan-11 16:33N 40°06' W 074°03'0 0.0
2017-Jan-11 15:33N 40°06' W 074°03'0 0.0
2017-Jan-11 14:33N 40°06' W 074°03'0 0.0
2017-Jan-11 13:33N 40°06' W 074°03'0 0.0
2017-Jan-11 12:33N 40°06' W 074°02'  

Dump ship's entire track history